Time;durP1;ratioP1;P1;durP2;ratioP2;P2;SDS_P1;SDS_P2;PMS_P1;PMS_P2;Temp;Humidity;BMP_temperature;BMP_pressure;BME280_temperature;BME280_humidity;BME280_pressure;Samples;Min_cycle;Max_cycle;Signal;HPM_P1;HPM_P2
2021/05/20 00:00:14;;;;;;;5.35;2.40;;;11.00;99.90;;;;;;5070692;28;20461;-67
2021/05/20 00:02:39;;;;;;;4.07;2.30;;;11.00;99.90;;;;;;5070370;28;20633;-67
2021/05/20 00:05:07;;;;;;;4.57;2.60;;;11.00;99.90;;;;;;5071005;28;20028;-68
2021/05/20 00:07:33;;;;;;;3.40;2.08;;;11.00;99.90;;;;;;5071508;28;21427;-67
2021/05/20 00:09:59;;;;;;;3.50;2.30;;;11.00;99.90;;;;;;5051040;28;20456;-67
2021/05/20 00:12:27;;;;;;;3.90;2.30;;;11.00;99.90;;;;;;5060149;28;20032;-67
2021/05/20 00:14:55;;;;;;;6.57;2.60;;;11.00;99.90;;;;;;5068595;28;20089;-67
2021/05/20 00:17:21;;;;;;;4.30;2.40;;;11.00;99.90;;;;;;5070632;28;20424;-67
2021/05/20 00:19:46;;;;;;;6.07;2.60;;;11.00;99.90;;;;;;5056749;28;20024;-67
2021/05/20 00:22:12;;;;;;;4.60;2.30;;;11.00;99.90;;;;;;5070175;28;20201;-67
2021/05/20 00:24:38;;;;;;;4.13;2.50;;;10.90;99.90;;;;;;5070385;28;20448;-67
2021/05/20 00:27:04;;;;;;;4.30;2.55;;;11.00;99.90;;;;;;5071013;28;20028;-68
2021/05/20 00:29:29;;;;;;;4.28;2.40;;;10.90;99.90;;;;;;5071789;28;20034;-67
2021/05/20 00:31:55;;;;;;;4.30;2.25;;;11.00;99.90;;;;;;5070330;28;20031;-67
2021/05/20 00:34:20;;;;;;;4.13;2.60;;;11.00;99.90;;;;;;5066497;28;20117;-67
2021/05/20 00:36:46;;;;;;;4.65;2.60;;;11.00;99.90;;;;;;5069433;28;20093;-67
2021/05/20 00:39:12;;;;;;;4.40;2.65;;;11.00;99.90;;;;;;5069564;28;20481;-67
2021/05/20 00:41:37;;;;;;;5.85;2.83;;;11.00;99.90;;;;;;5053421;28;20040;-67
2021/05/20 00:44:03;;;;;;;5.50;2.63;;;11.00;99.90;;;;;;5070079;28;20024;-67
2021/05/20 00:46:29;;;;;;;5.25;2.90;;;11.00;99.90;;;;;;5068464;28;20032;-67
2021/05/20 00:48:55;;;;;;;4.30;2.40;;;11.00;99.90;;;;;;5067529;28;20024;-67
2021/05/20 00:51:23;;;;;;;6.20;2.90;;;11.00;99.90;;;;;;5071539;28;20386;-67
2021/05/20 00:53:49;;;;;;;4.65;2.60;;;11.00;99.90;;;;;;5069024;28;20028;-67
2021/05/20 00:56:17;;;;;;;4.18;2.70;;;11.00;99.90;;;;;;5067205;28;20085;-67
2021/05/20 00:58:48;;;;;;;5.13;2.75;;;11.00;99.90;;;;;;5059439;28;20479;-67
2021/05/20 01:01:13;;;;;;;4.47;2.70;;;11.00;99.90;;;;;;5068331;28;20056;-67
2021/05/20 01:03:41;;;;;;;4.70;2.70;;;10.90;99.90;;;;;;5070079;28;20119;-67
2021/05/20 01:06:09;;;;;;;4.97;2.80;;;10.90;99.90;;;;;;5067773;28;20043;-67
2021/05/20 01:08:38;;;;;;;5.75;2.60;;;10.90;99.90;;;;;;5055116;28;20028;-67
2021/05/20 01:11:03;;;;;;;4.90;2.80;;;10.90;99.90;;;;;;5050499;28;20495;-67
2021/05/20 01:13:31;;;;;;;5.13;3.00;;;10.90;99.90;;;;;;5069847;28;20054;-67
2021/05/20 01:15:59;;;;;;;4.38;2.50;;;10.90;99.90;;;;;;5069547;28;20035;-67
2021/05/20 01:18:25;;;;;;;4.28;2.83;;;10.90;99.90;;;;;;5069738;28;20054;-67
2021/05/20 01:20:51;;;;;;;5.55;3.00;;;10.80;99.90;;;;;;5068746;28;20481;-68
2021/05/20 01:23:18;;;;;;;5.05;3.15;;;10.80;99.90;;;;;;5049068;28;20094;-67
2021/05/20 01:25:47;;;;;;;5.10;2.72;;;10.80;99.90;;;;;;5050495;28;20459;-67
2021/05/20 01:28:17;;;;;;;4.88;2.70;;;10.80;99.90;;;;;;5068173;28;20028;-67
2021/05/20 01:30:46;;;;;;;4.70;2.50;;;10.80;99.90;;;;;;5057545;28;20024;-67
2021/05/20 01:33:12;;;;;;;5.55;2.60;;;10.80;99.90;;;;;;5069135;28;20798;-67
2021/05/20 01:35:44;;;;;;;5.22;2.80;;;10.80;99.90;;;;;;5069717;28;20113;-67
2021/05/20 01:41:09;;;;;;;4.90;2.60;;;10.80;99.90;;;;;;5071922;28;20167;-67
2021/05/20 01:43:38;;;;;;;3.85;2.20;;;10.80;99.90;;;;;;5069617;28;20382;-67
2021/05/20 01:46:06;;;;;;;3.90;2.17;;;10.80;99.90;;;;;;5068890;28;20056;-67
2021/05/20 01:48:37;;;;;;;4.43;2.20;;;10.80;99.90;;;;;;5084879;28;20032;-67
2021/05/20 01:51:10;;;;;;;4.70;2.40;;;10.80;99.90;;;;;;5050682;28;20028;-68
2021/05/20 01:53:38;;;;;;;5.43;2.75;;;10.80;99.90;;;;;;5068643;28;20619;-67
2021/05/20 01:56:07;;;;;;;4.10;2.47;;;10.80;99.90;;;;;;5068439;28;20032;-67
2021/05/20 01:58:33;;;;;;;5.82;2.50;;;10.80;99.90;;;;;;5074111;28;20031;-67
2021/05/20 02:00:58;;;;;;;4.63;2.78;;;10.80;99.90;;;;;;5066400;28;20025;-67
2021/05/20 02:03:24;;;;;;;4.43;2.70;;;10.80;99.90;;;;;;5067704;28;20153;-67
2021/05/20 02:05:50;;;;;;;3.78;2.40;;;10.70;99.90;;;;;;5069063;28;20024;-67
2021/05/20 02:08:18;;;;;;;6.82;3.30;;;10.70;99.90;;;;;;5051491;28;20029;-67
2021/05/20 02:10:44;;;;;;;5.00;2.72;;;10.70;99.90;;;;;;5070319;28;20020;-67
2021/05/20 02:13:10;;;;;;;7.35;3.80;;;10.70;99.90;;;;;;5071212;28;20039;-67
2021/05/20 02:15:38;;;;;;;6.38;3.10;;;10.70;99.90;;;;;;5059196;28;20047;-67
2021/05/20 02:18:05;;;;;;;6.25;3.20;;;10.60;99.90;;;;;;5068462;28;20029;-67
2021/05/20 02:20:35;;;;;;;6.20;2.92;;;10.60;99.90;;;;;;5068806;28;20102;-67
2021/05/20 02:23:04;;;;;;;5.63;2.80;;;10.70;99.90;;;;;;5065739;28;20052;-67
2021/05/20 02:25:29;;;;;;;6.05;3.42;;;10.70;99.90;;;;;;5065612;28;20067;-67
2021/05/20 02:27:57;;;;;;;5.82;3.33;;;10.70;99.90;;;;;;5067484;28;20142;-67
2021/05/20 02:30:25;;;;;;;6.53;3.45;;;10.70;99.90;;;;;;5069699;28;20107;-67
2021/05/20 02:32:51;;;;;;;6.03;2.90;;;10.70;99.90;;;;;;5066986;28;20035;-68
2021/05/20 02:35:16;;;;;;;4.72;2.80;;;10.70;99.90;;;;;;5068224;28;20032;-67
2021/05/20 02:37:44;;;;;;;4.35;2.67;;;10.70;99.90;;;;;;5065157;28;20039;-67
2021/05/20 02:40:10;;;;;;;4.47;2.70;;;10.70;99.90;;;;;;5066371;28;20047;-67
2021/05/20 02:42:39;;;;;;;4.80;3.00;;;10.70;99.90;;;;;;5066492;28;20071;-67
2021/05/20 02:45:11;;;;;;;4.50;2.75;;;10.70;99.90;;;;;;5071850;28;20043;-67
2021/05/20 02:47:36;;;;;;;4.35;2.85;;;10.70;99.90;;;;;;5071800;28;20464;-67
2021/05/20 02:50:08;;;;;;;6.30;3.15;;;10.70;99.90;;;;;;5077505;28;20060;-67
2021/05/20 02:52:36;;;;;;;6.07;3.60;;;10.70;99.90;;;;;;5080059;28;20077;-69
2021/05/20 02:55:07;;;;;;;4.82;3.15;;;10.70;99.90;;;;;;5071303;28;20033;-67
2021/05/20 02:57:33;;;;;;;7.95;3.58;;;10.70;99.90;;;;;;5072086;28;20051;-68
2021/05/20 03:00:01;;;;;;;6.15;3.80;;;10.70;99.90;;;;;;5072200;28;20044;-67
2021/05/20 03:02:29;;;;;;;10.43;5.90;;;10.70;99.90;;;;;;5071580;28;20131;-68
2021/05/20 03:04:55;;;;;;;12.23;4.13;;;10.60;99.90;;;;;;5072123;28;20024;-67
2021/05/20 03:07:20;;;;;;;6.78;4.55;;;10.60;99.90;;;;;;5071888;28;20033;-67
2021/05/20 03:09:48;;;;;;;12.57;8.45;;;10.50;99.90;;;;;;5059075;28;20033;-67
2021/05/20 03:12:16;;;;;;;12.20;8.30;;;10.40;99.90;;;;;;5071992;28;20556;-67
2021/05/20 03:14:42;;;;;;;12.63;8.45;;;10.40;99.90;;;;;;5068790;28;20063;-67
2021/05/20 03:17:11;;;;;;;12.23;8.77;;;10.40;99.90;;;;;;5072395;28;20123;-66
2021/05/20 03:19:42;;;;;;;12.38;8.50;;;10.40;99.90;;;;;;5069293;28;20085;-67
2021/05/20 03:22:08;;;;;;;14.80;8.50;;;10.40;99.90;;;;;;5068798;28;20040;-67
2021/05/20 03:24:34;;;;;;;11.32;7.63;;;10.30;99.90;;;;;;5069671;28;20054;-67
2021/05/20 03:27:05;;;;;;;9.85;6.80;;;10.40;99.90;;;;;;5062307;28;20086;-67
2021/05/20 03:29:32;;;;;;;9.25;6.45;;;10.40;99.90;;;;;;5069895;28;20024;-67
2021/05/20 03:31:58;;;;;;;9.77;6.78;;;10.40;99.90;;;;;;5071793;28;20042;-67
2021/05/20 03:34:24;;;;;;;9.98;6.50;;;10.40;99.90;;;;;;5071603;28;20547;-67
2021/05/20 03:36:52;;;;;;;11.05;7.68;;;10.40;99.90;;;;;;5072488;28;20031;-67
2021/05/20 03:39:20;;;;;;;10.07;6.75;;;10.40;99.90;;;;;;5069835;28;20068;-67
2021/05/20 03:41:48;;;;;;;8.95;5.40;;;10.40;99.90;;;;;;5071098;28;20111;-67
2021/05/20 03:44:18;;;;;;;6.97;4.60;;;10.50;99.90;;;;;;5075053;28;20490;-67
2021/05/20 03:46:46;;;;;;;7.32;4.97;;;10.40;99.90;;;;;;5071202;28;20027;-67
2021/05/20 03:49:13;;;;;;;9.15;5.35;;;10.50;99.90;;;;;;5069512;28;20024;-67
2021/05/20 03:51:39;;;;;;;10.18;6.05;;;10.50;99.90;;;;;;5071312;28;20025;-67
2021/05/20 03:54:05;;;;;;;8.20;5.85;;;10.50;99.90;;;;;;5069738;28;20040;-67
2021/05/20 03:56:30;;;;;;;8.57;5.70;;;10.50;99.90;;;;;;5069778;28;20104;-67
2021/05/20 03:58:56;;;;;;;10.98;7.78;;;10.50;99.90;;;;;;5070300;28;20028;-67
2021/05/20 04:01:22;;;;;;;11.38;7.40;;;10.50;99.90;;;;;;5069817;28;20099;-67
2021/05/20 04:03:47;;;;;;;10.20;7.50;;;10.40;99.90;;;;;;5068614;28;20064;-67
2021/05/20 04:06:17;;;;;;;10.63;7.20;;;10.40;99.90;;;;;;5069512;28;20147;-67
2021/05/20 04:08:44;;;;;;;11.10;8.00;;;10.50;99.90;;;;;;5053130;28;20028;-67
2021/05/20 04:11:10;;;;;;;10.50;7.13;;;10.40;99.90;;;;;;5068928;28;20090;-67
2021/05/20 04:13:40;;;;;;;9.68;6.63;;;10.40;99.90;;;;;;5058053;28;20028;-67
2021/05/20 04:16:06;;;;;;;7.57;5.85;;;10.50;99.90;;;;;;5067705;28;20031;-67
2021/05/20 04:18:34;;;;;;;7.93;6.32;;;10.40;99.90;;;;;;5067984;28;20032;-67
2021/05/20 04:21:00;;;;;;;9.20;6.47;;;10.50;99.90;;;;;;5069325;28;20123;-67
2021/05/20 04:23:30;;;;;;;11.13;8.00;;;10.50;99.90;;;;;;5069132;28;20056;-67
2021/05/20 04:25:56;;;;;;;10.93;8.15;;;10.50;99.90;;;;;;5071648;28;20040;-67
2021/05/20 04:28:22;;;;;;;10.75;8.15;;;10.50;99.90;;;;;;5068668;28;20426;-67
2021/05/20 04:30:50;;;;;;;11.65;8.27;;;10.50;99.90;;;;;;5070436;28;20455;-67
2021/05/20 04:33:16;;;;;;;12.85;9.63;;;10.50;99.90;;;;;;5067506;28;20031;-67
2021/05/20 04:35:41;;;;;;;16.33;10.02;;;10.50;99.90;;;;;;5070726;28;20028;-67
2021/05/20 04:38:07;;;;;;;13.88;10.07;;;10.50;99.90;;;;;;5068191;28;20040;-67
2021/05/20 04:40:36;;;;;;;14.75;9.95;;;10.50;99.90;;;;;;5068569;28;20020;-67
2021/05/20 04:43:01;;;;;;;12.25;8.48;;;10.50;99.90;;;;;;5068225;28;20059;-67
2021/05/20 04:45:29;;;;;;;11.35;8.32;;;10.60;99.90;;;;;;5074123;28;20640;-67
2021/05/20 04:47:55;;;;;;;12.52;8.68;;;10.60;99.90;;;;;;5069128;28;20028;-67
2021/05/20 04:50:21;;;;;;;12.00;8.82;;;10.60;99.90;;;;;;5070814;28;20032;-67
2021/05/20 04:52:47;;;;;;;13.07;8.93;;;10.60;99.90;;;;;;5069216;28;20028;-67
2021/05/20 04:55:14;;;;;;;15.88;11.38;;;10.70;99.90;;;;;;5069923;28;20710;-67
2021/05/20 04:57:41;;;;;;;15.57;11.30;;;10.70;99.90;;;;;;5054492;28;20182;-67
2021/05/20 05:00:09;;;;;;;13.30;10.38;;;10.70;99.90;;;;;;5057608;28;20043;-67
2021/05/20 05:02:37;;;;;;;19.50;13.82;;;10.70;99.90;;;;;;5069357;28;20059;-67
2021/05/20 05:05:05;;;;;;;21.33;15.52;;;10.80;99.90;;;;;;5072294;28;20033;-67
2021/05/20 05:07:35;;;;;;;22.92;16.13;;;10.80;99.90;;;;;;5050575;28;20029;-67
2021/05/20 05:10:02;;;;;;;22.55;16.10;;;10.80;99.90;;;;;;5069364;28;20039;-67
2021/05/20 05:12:28;;;;;;;23.73;16.65;;;10.70;99.90;;;;;;5057873;28;20036;-67
2021/05/20 05:14:54;;;;;;;23.20;16.27;;;10.70;99.90;;;;;;5054178;28;20027;-67
2021/05/20 05:17:19;;;;;;;23.95;17.40;;;10.60;99.90;;;;;;5067809;28;20028;-67
2021/05/20 05:19:45;;;;;;;19.20;15.15;;;10.70;99.90;;;;;;5065881;28;20368;-67
2021/05/20 05:22:13;;;;;;;24.27;17.63;;;10.70;99.90;;;;;;5084556;28;20080;-67
2021/05/20 05:24:39;;;;;;;21.52;15.80;;;10.70;99.90;;;;;;5069803;28;20086;-67
2021/05/20 05:27:05;;;;;;;22.30;16.13;;;10.70;99.90;;;;;;5066465;28;20028;-67
2021/05/20 05:29:34;;;;;;;22.52;16.88;;;10.80;99.90;;;;;;5070436;28;20759;-67
2021/05/20 05:32:00;;;;;;;18.20;14.18;;;10.80;99.90;;;;;;5069932;28;20120;-68
2021/05/20 05:34:26;;;;;;;20.13;15.35;;;10.80;99.90;;;;;;5068381;28;21914;-68
2021/05/20 05:36:54;;;;;;;20.45;15.88;;;10.90;99.90;;;;;;5066278;28;20062;-68
2021/05/20 05:39:20;;;;;;;20.90;15.98;;;10.90;99.90;;;;;;5068461;28;20028;-69
2021/05/20 05:41:48;;;;;;;24.55;17.73;;;10.90;99.90;;;;;;5067752;28;20032;-68
2021/05/20 05:44:16;;;;;;;22.83;16.52;;;10.90;99.90;;;;;;5067032;28;20024;-67
2021/05/20 05:46:44;;;;;;;19.10;15.35;;;11.00;99.90;;;;;;5072490;28;20043;-68
2021/05/20 05:49:15;;;;;;;20.13;14.23;;;11.00;99.90;;;;;;5077035;28;20051;-67
2021/05/20 05:51:53;;;;;;;12.23;10.10;;;11.10;99.90;;;;;;5070547;28;20024;-67
2021/05/20 05:54:21;;;;;;;20.83;13.85;;;11.10;99.90;;;;;;5051425;28;20311;-68
2021/05/20 05:56:46;;;;;;;18.38;14.30;;;11.20;99.90;;;;;;5067233;28;20024;-68
2021/05/20 05:59:12;;;;;;;15.80;12.65;;;11.30;99.90;;;;;;5068440;28;20062;-67
2021/05/20 06:01:39;;;;;;;16.77;12.85;;;11.30;99.90;;;;;;5067667;28;20036;-68
2021/05/20 06:04:10;;;;;;;17.05;13.38;;;11.40;99.90;;;;;;5067863;28;20040;-68
2021/05/20 06:06:36;;;;;;;18.57;14.13;;;11.50;99.90;;;;;;5073609;28;20123;-68
2021/05/20 06:09:08;;;;;;;19.98;13.70;;;11.50;99.90;;;;;;5076655;28;20092;-68
2021/05/20 06:11:36;;;;;;;18.10;13.98;;;11.60;99.90;;;;;;5069461;28;20043;-67
2021/05/20 06:14:04;;;;;;;17.55;14.13;;;11.60;99.90;;;;;;5077372;28;20035;-68
2021/05/20 06:16:34;;;;;;;22.08;15.10;;;11.70;99.90;;;;;;5069146;28;20051;-67
2021/05/20 06:19:00;;;;;;;17.02;13.27;;;11.70;99.90;;;;;;5072249;28;20045;-67
2021/05/20 06:21:25;;;;;;;22.90;13.88;;;11.80;99.90;;;;;;5069432;28;20036;-68
2021/05/20 06:23:54;;;;;;;18.27;14.18;;;11.90;99.90;;;;;;5075258;28;20071;-68
2021/05/20 06:26:24;;;;;;;16.13;12.88;;;11.90;99.90;;;;;;5078953;28;20553;-68
2021/05/20 06:28:50;;;;;;;17.13;13.70;;;12.00;99.90;;;;;;5080127;28;20013;-67
2021/05/20 06:31:15;;;;;;;17.52;14.30;;;11.90;99.90;;;;;;5080911;28;20421;-68
2021/05/20 06:33:43;;;;;;;17.45;12.77;;;11.90;99.90;;;;;;5062681;28;20127;-68
2021/05/20 06:36:14;;;;;;;15.48;12.10;;;11.90;99.90;;;;;;5078708;28;20058;-68
2021/05/20 06:38:44;;;;;;;16.67;12.73;;;11.90;99.90;;;;;;5079476;28;20052;-68
2021/05/20 06:41:10;;;;;;;16.10;12.40;;;11.90;99.90;;;;;;5078630;28;20129;-68
2021/05/20 06:43:38;;;;;;;17.45;13.73;;;12.00;99.90;;;;;;5080624;28;20028;-68
2021/05/20 06:46:09;;;;;;;15.30;11.45;;;12.00;99.90;;;;;;5079558;28;20096;-68
2021/05/20 06:48:35;;;;;;;19.02;14.10;;;12.00;99.90;;;;;;5062148;28;20066;-68
2021/05/20 06:51:01;;;;;;;15.95;12.02;;;12.00;99.90;;;;;;5080131;28;20028;-68
2021/05/20 06:53:32;;;;;;;17.60;13.23;;;12.10;99.90;;;;;;5073246;28;20016;-67
2021/05/20 06:56:01;;;;;;;16.48;12.70;;;12.10;99.90;;;;;;5096095;28;20021;-68
2021/05/20 07:01:19;;;;;;;19.15;12.68;;;12.20;99.90;;;;;;5078019;28;20516;-68
2021/05/20 07:03:49;;;;;;;16.50;12.02;;;12.20;99.90;;;;;;5077032;28;20028;-68
2021/05/20 07:06:15;;;;;;;15.82;13.77;;;12.30;99.90;;;;;;5079440;28;20025;-68
2021/05/20 07:08:41;;;;;;;15.32;12.88;;;12.20;99.90;;;;;;5080014;28;20011;-68
2021/05/20 07:11:07;;;;;;;17.27;13.20;;;12.30;99.90;;;;;;5081112;28;20082;-68
2021/05/20 07:13:33;;;;;;;17.70;13.48;;;12.30;99.90;;;;;;5078773;28;20032;-67
2021/05/20 07:16:03;;;;;;;16.35;13.23;;;12.40;99.90;;;;;;5076100;28;20059;-68
2021/05/20 07:18:28;;;;;;;15.27;12.38;;;12.40;99.90;;;;;;5081870;28;20024;-68
2021/05/20 07:20:54;;;;;;;17.75;13.18;;;12.30;99.90;;;;;;5081378;28;20035;-68
2021/05/20 07:23:22;;;;;;;16.25;12.32;;;12.40;99.90;;;;;;5079900;28;20075;-68
2021/05/20 07:25:48;;;;;;;72.15;58.60;;;12.40;99.90;;;;;;5079041;28;20038;-68
2021/05/20 07:28:17;;;;;;;28.60;21.95;;;12.40;99.90;;;;;;5079549;28;20017;-68
2021/05/20 07:30:45;;;;;;;16.75;14.07;;;12.50;99.90;;;;;;5079262;28;20155;-67
2021/05/20 07:33:13;;;;;;;16.40;12.32;;;12.50;99.90;;;;;;5080596;28;20040;-67
2021/05/20 07:35:39;;;;;;;16.05;12.45;;;12.60;99.90;;;;;;5078951;28;20020;-67
2021/05/20 07:38:05;;;;;;;15.30;11.43;;;12.60;99.90;;;;;;5081186;28;20035;-68
2021/05/20 07:40:30;;;;;;;14.43;11.27;;;12.60;99.90;;;;;;5079094;28;20032;-68
2021/05/20 07:42:57;;;;;;;17.95;11.52;;;12.60;99.90;;;;;;5079653;28;20043;-68
2021/05/20 07:45:22;;;;;;;16.52;11.43;;;12.70;99.90;;;;;;5080048;28;20036;-68
2021/05/20 07:47:50;;;;;;;19.38;14.25;;;12.70;99.90;;;;;;5079179;28;20024;-68
2021/05/20 07:50:16;;;;;;;17.13;13.90;;;12.70;99.90;;;;;;5076139;28;20449;-70
2021/05/20 07:52:45;;;;;;;16.10;14.40;;;12.80;99.90;;;;;;5077606;28;20024;-68
2021/05/20 07:55:11;;;;;;;17.67;13.68;;;12.90;99.90;;;;;;5079416;28;20157;-67
2021/05/20 07:57:36;;;;;;;16.92;13.32;;;13.00;99.90;;;;;;5077941;28;20520;-67
2021/05/20 08:00:05;;;;;;;16.00;12.82;;;13.00;99.90;;;;;;5077646;28;20115;-67
2021/05/20 08:02:38;;;;;;;15.95;11.88;;;13.20;99.90;;;;;;5080361;28;20031;-67
2021/05/20 08:05:10;;;;;;;16.02;12.60;;;13.50;99.90;;;;;;5064075;28;20035;-67
2021/05/20 08:12:46;;;;;;;13.60;10.40;;;14.10;99.90;;;;;;5080218;28;20434;-66
2021/05/20 08:15:14;;;;;;;11.07;9.23;;;14.10;99.90;;;;;;5078233;28;20090;-68
2021/05/20 08:17:40;;;;;;;14.45;10.07;;;14.20;99.90;;;;;;5079177;28;20054;-67
2021/05/20 08:20:09;;;;;;;11.82;8.90;;;14.20;99.90;;;;;;5083109;28;20698;-67
2021/05/20 08:22:38;;;;;;;11.38;9.32;;;14.10;99.90;;;;;;5078404;28;20643;-68
2021/05/20 08:25:06;;;;;;;11.15;9.52;;;14.10;99.90;;;;;;5077908;28;20058;-67
2021/05/20 08:27:34;;;;;;;11.30;8.93;;;14.10;99.90;;;;;;5069641;28;20024;-67
2021/05/20 08:30:04;;;;;;;9.85;8.02;;;13.90;99.90;;;;;;5078048;28;20028;-67
2021/05/20 08:32:29;;;;;;;11.13;9.20;;;14.00;99.90;;;;;;5078158;28;20099;-67
2021/05/20 08:34:57;;;;;;;10.02;8.15;;;14.00;99.90;;;;;;5079181;28;20104;-67
2021/05/20 08:37:23;;;;;;;11.10;8.68;;;14.10;99.90;;;;;;5078255;28;20050;-67
2021/05/20 08:39:51;;;;;;;11.48;9.18;;;14.10;99.90;;;;;;5076858;28;20028;-67
2021/05/20 08:42:19;;;;;;;11.32;9.70;;;14.10;99.90;;;;;;5078977;28;20465;-67
2021/05/20 08:44:45;;;;;;;10.82;8.27;;;14.00;99.90;;;;;;5077883;28;20818;-67
2021/05/20 08:47:11;;;;;;;10.82;8.30;;;14.00;99.90;;;;;;5080269;28;20123;-67
2021/05/20 08:49:37;;;;;;;10.30;7.57;;;14.00;99.90;;;;;;5077182;28;20530;-67
2021/05/20 08:52:06;;;;;;;9.73;7.57;;;14.00;99.90;;;;;;5077086;28;20114;-67
2021/05/20 08:54:31;;;;;;;9.10;7.30;;;14.10;99.90;;;;;;5095011;28;20165;-67
2021/05/20 08:56:57;;;;;;;8.60;6.63;;;14.00;99.90;;;;;;5078236;28;20491;-67
2021/05/20 08:59:25;;;;;;;10.10;6.70;;;14.00;99.90;;;;;;5077113;28;20036;-67
2021/05/20 09:01:51;;;;;;;8.60;6.60;;;13.90;99.90;;;;;;5075781;28;20325;-67
2021/05/20 09:04:19;;;;;;;10.85;6.93;;;13.90;99.90;;;;;;5077653;28;20515;-67
2021/05/20 09:06:49;;;;;;;8.60;6.88;;;13.60;92.50;;;;;;5076790;28;20031;-67
2021/05/20 09:09:21;;;;;;;9.32;7.00;;;13.60;95.90;;;;;;5078112;28;20056;-67
2021/05/20 09:11:48;;;;;;;9.48;6.60;;;13.50;98.80;;;;;;5078036;28;20032;-67
2021/05/20 09:14:26;;;;;;;8.02;6.63;;;13.60;99.90;;;;;;5078307;28;20020;-67
2021/05/20 09:17:05;;;;;;;9.52;6.68;;;13.70;99.90;;;;;;5079202;28;20119;-67
2021/05/20 09:19:31;;;;;;;9.10;6.78;;;13.70;99.90;;;;;;5077672;28;20024;-67
2021/05/20 09:22:07;;;;;;;9.60;7.40;;;13.60;99.90;;;;;;5080037;28;20127;-66
2021/05/20 09:24:43;;;;;;;9.15;7.40;;;13.70;94.10;;;;;;5078473;28;20051;-67
2021/05/20 09:27:38;;;;;;;9.60;6.78;;;13.40;95.20;;;;;;5077464;28;20036;-66
2021/05/20 09:30:13;;;;;;;9.38;7.22;;;13.40;91.30;;;;;;5079777;28;20040;-66
2021/05/20 09:33:06;;;;;;;8.63;6.78;;;13.50;93.80;;;;;;5077841;28;20666;-67
2021/05/20 09:35:38;;;;;;;9.55;7.90;;;13.70;97.60;;;;;;5077537;28;20016;-66
2021/05/20 09:38:12;;;;;;;12.00;7.90;;;13.70;92.10;;;;;;5077462;28;20085;-67
2021/05/20 09:40:45;;;;;;;10.48;6.47;;;13.80;98.40;;;;;;5077981;28;20419;-66
2021/05/20 09:43:16;;;;;;;8.10;6.50;;;13.70;94.20;;;;;;5077000;28;20028;-66
2021/05/20 09:45:42;;;;;;;8.00;6.80;;;13.80;91.10;;;;;;5078720;28;20024;-69
2021/05/20 09:48:10;;;;;;;9.52;7.45;;;13.70;94.10;;;;;;5078043;28;20524;-67
2021/05/20 09:50:44;;;;;;;10.10;7.53;;;13.80;99.90;;;;;;5077191;28;20346;-67
2021/05/20 09:53:14;;;;;;;9.48;7.38;;;13.90;99.90;;;;;;5073329;28;20489;-67
2021/05/20 09:55:59;;;;;;;10.02;7.32;;;14.10;99.90;;;;;;5080950;28;20101;-66
2021/05/20 09:58:26;;;;;;;10.45;8.52;;;14.10;95.50;;;;;;5077400;28;20020;-67
2021/05/20 10:00:57;;;;;;;8.00;6.63;;;14.20;99.90;;;;;;5061319;28;20025;-67
2021/05/20 10:03:28;;;;;;;8.80;6.82;;;14.30;99.60;;;;;;5075989;28;20024;-67
2021/05/20 10:05:59;;;;;;;8.85;6.95;;;14.10;92.80;;;;;;5080267;28;20114;-66
2021/05/20 10:08:26;;;;;;;9.63;7.40;;;14.20;93.70;;;;;;5079551;28;20028;-66
2021/05/20 10:10:55;;;;;;;8.07;6.93;;;14.30;99.20;;;;;;5077736;28;20039;-67
2021/05/20 10:13:22;;;;;;;8.00;6.53;;;14.40;99.90;;;;;;5075415;28;20031;-67
2021/05/20 10:15:50;;;;;;;8.00;6.80;;;14.50;96.70;;;;;;5078188;28;20039;-67
2021/05/20 10:18:18;;;;;;;7.40;6.45;;;14.60;95.20;;;;;;5076779;28;20028;-67
2021/05/20 10:20:45;;;;;;;8.60;5.90;;;14.60;94.80;;;;;;5076985;28;20039;-67
2021/05/20 10:23:15;;;;;;;8.38;6.63;;;14.60;92.00;;;;;;5077447;28;20071;-66
2021/05/20 10:25:44;;;;;;;8.90;6.00;;;14.60;87.80;;;;;;5075956;28;20040;-66
2021/05/20 10:28:15;;;;;;;8.40;6.65;;;14.70;91.10;;;;;;5058673;28;20020;-67
2021/05/20 10:30:43;;;;;;;7.88;6.40;;;14.80;94.10;;;;;;5073948;28;20024;-66
2021/05/20 10:33:08;;;;;;;8.10;6.60;;;14.80;95.10;;;;;;5063611;28;20115;-67
2021/05/20 10:35:42;;;;;;;8.38;6.80;;;14.80;89.10;;;;;;5079154;28;20098;-66
2021/05/20 10:38:08;;;;;;;7.60;5.82;;;14.70;86.40;;;;;;5076087;28;20497;-66
2021/05/20 10:40:34;;;;;;;9.68;7.72;;;14.80;89.40;;;;;;5076510;28;20048;-66
2021/05/20 10:43:03;;;;;;;7.35;6.05;;;14.80;88.60;;;;;;5075117;28;20625;-66
2021/05/20 10:45:32;;;;;;;7.22;5.63;;;14.70;87.10;;;;;;5077583;28;20032;-66
2021/05/20 10:48:04;;;;;;;7.03;5.55;;;14.70;88.20;;;;;;5078136;28;20020;-66
2021/05/20 10:50:55;;;;;;;10.50;7.93;;;14.70;90.20;;;;;;5083815;28;20123;-66
2021/05/20 10:53:49;;;;;;;7.25;6.15;;;14.80;83.50;;;;;;5079435;28;20045;-67
2021/05/20 10:56:14;;;;;;;9.35;6.57;;;14.80;91.30;;;;;;5078149;28;20029;-67
2021/05/20 10:58:47;;;;;;;7.32;6.18;;;14.90;94.60;;;;;;5077793;28;20035;-66
2021/05/20 11:01:25;;;;;;;7.68;6.55;;;15.00;93.50;;;;;;5074068;28;20043;-67
2021/05/20 11:03:50;;;;;;;7.70;6.20;;;15.30;99.90;;;;;;5076374;28;20033;-67
2021/05/20 11:06:17;;;;;;;7.88;6.18;;;15.40;85.90;;;;;;5081473;28;20043;-67
2021/05/20 11:08:46;;;;;;;7.60;5.85;;;15.60;83.10;;;;;;5080529;28;20027;-66
2021/05/20 11:11:44;;;;;;;7.45;5.70;;;15.70;86.60;;;;;;5082323;28;20032;-67
2021/05/20 11:14:12;;;;;;;6.80;5.65;;;15.70;81.50;;;;;;5080837;28;20449;-67
2021/05/20 11:16:41;;;;;;;7.03;5.00;;;15.80;87.70;;;;;;5081681;28;20032;-67
2021/05/20 11:19:16;;;;;;;5.95;4.38;;;15.60;81.40;;;;;;5079641;28;20016;-67
2021/05/20 11:22:09;;;;;;;7.22;4.70;;;15.50;83.20;;;;;;5079811;28;20039;-66
2021/05/20 11:24:35;;;;;;;6.47;4.32;;;15.60;82.70;;;;;;5078996;28;20501;-66
2021/05/20 11:27:10;;;;;;;6.43;4.15;;;15.30;74.50;;;;;;5078786;28;20031;-67
2021/05/20 11:29:45;;;;;;;7.32;4.55;;;15.40;82.30;;;;;;5081424;28;20032;-66
2021/05/20 11:37:24;;;;;;;6.63;4.53;;;15.60;81.20;;;;;;5079411;28;20062;-66
2021/05/20 11:39:52;;;;;;;8.25;5.57;;;15.60;82.90;;;;;;5082105;28;20023;-67
2021/05/20 11:42:26;;;;;;;7.03;5.80;;;15.50;77.60;;;;;;5078456;28;20044;-66
2021/05/20 11:44:52;;;;;;;6.70;5.30;;;15.40;79.40;;;;;;5079150;28;20056;-66
2021/05/20 11:47:20;;;;;;;6.43;5.10;;;15.40;80.30;;;;;;5079596;28;20051;-67
2021/05/20 11:49:47;;;;;;;7.03;5.63;;;15.50;88.60;;;;;;5081058;28;20036;-67
2021/05/20 11:52:15;;;;;;;6.70;5.30;;;15.50;86.20;;;;;;5079410;28;20028;-66
2021/05/20 11:54:45;;;;;;;6.50;5.03;;;15.30;80.30;;;;;;5077968;28;20406;-67
2021/05/20 11:57:11;;;;;;;6.30;4.93;;;15.40;80.00;;;;;;5078722;28;20024;-67
2021/05/20 11:59:37;;;;;;;7.28;5.07;;;15.50;88.80;;;;;;5078947;28;20032;-66
2021/05/20 12:02:12;;;;;;;6.88;5.13;;;15.60;88.10;;;;;;5078578;28;20019;-67
2021/05/20 12:04:43;;;;;;;8.07;5.30;;;15.70;84.20;;;;;;5075366;28;20074;-67
2021/05/20 12:07:24;;;;;;;7.93;5.90;;;15.80;82.00;;;;;;5085708;28;20028;-67
2021/05/20 12:09:53;;;;;;;7.93;5.28;;;16.00;87.60;;;;;;5081333;28;20016;-67
2021/05/20 12:12:19;;;;;;;6.72;5.22;;;15.90;83.20;;;;;;5077634;28;20103;-66
2021/05/20 12:14:48;;;;;;;7.57;4.88;;;16.00;84.00;;;;;;5076667;28;20020;-66
2021/05/20 12:17:17;;;;;;;6.93;5.25;;;16.00;78.30;;;;;;5076223;28;20059;-67
2021/05/20 12:19:48;;;;;;;6.80;4.30;;;15.90;83.50;;;;;;5061126;28;20086;-67
2021/05/20 12:22:28;;;;;;;5.55;3.35;;;16.00;85.60;;;;;;5077611;28;20046;-67
2021/05/20 12:24:55;;;;;;;4.90;3.13;;;15.90;75.70;;;;;;5078217;28;20550;-69
2021/05/20 12:27:27;;;;;;;4.13;2.55;;;15.60;73.20;;;;;;5079909;28;20028;-67
2021/05/20 12:29:57;;;;;;;3.78;2.25;;;15.60;75.50;;;;;;5079621;28;20020;-66
2021/05/20 12:32:26;;;;;;;3.88;2.22;;;15.50;76.50;;;;;;5061704;28;20073;-67
2021/05/20 12:35:13;;;;;;;3.38;1.90;;;15.50;77.00;;;;;;5077849;28;20028;-67
2021/05/20 12:37:42;;;;;;;4.10;2.20;;;15.50;74.20;;;;;;5060871;28;20029;-66
2021/05/20 12:40:32;;;;;;;3.58;2.28;;;15.50;74.40;;;;;;5079961;28;20031;-67
2021/05/20 12:43:14;;;;;;;3.53;2.42;;;15.30;74.50;;;;;;5080146;28;20473;-67
2021/05/20 12:45:56;;;;;;;4.38;2.60;;;15.20;77.90;;;;;;5061508;28;20033;-66
2021/05/20 12:48:24;;;;;;;6.35;3.90;;;15.20;78.20;;;;;;5079561;28;20017;-66
2021/05/20 12:50:50;;;;;;;4.85;2.67;;;15.20;78.50;;;;;;5080139;28;20032;-66
2021/05/20 12:53:32;;;;;;;5.68;3.33;;;15.20;80.30;;;;;;5077422;28;20028;-67
2021/05/20 12:56:02;;;;;;;4.50;2.53;;;15.20;80.50;;;;;;5079192;28;20024;-67
2021/05/20 12:58:46;;;;;;;4.13;2.77;;;15.30;86.00;;;;;;4376066;28;10000750;-65
2021/05/20 13:01:12;;;;;;;6.68;3.63;;;15.40;88.50;;;;;;5076897;28;20268;-66
2021/05/20 13:03:46;;;;;;;5.75;3.28;;;15.50;90.20;;;;;;5076313;28;20032;-66